Data for 01/07/2013

Time Sea-Level Adjusted Pressure Absolute Pressure Temperature Relative Humidity Dew Point   
(mb) (inHg) (mb) (inHg) (C) (F) (%) (C) (F)
00:05 1017 30.03 846 24.98 -2 28.5 70 -6.8 19.8
00:10 1017 30.03 846 24.98 -1.9 28.7 68 -7 19.5
00:15 1017 30.03 846 24.98 -1.6 29.1 68 -6.8 19.8
00:20 1017 30.03 846 24.98 -1.5 29.3 67 -6.8 19.8
00:25 1017 30.03 846 24.98 -1.4 29.5 67 -6.8 19.7
00:30 1017 30.03 846 24.98 -1.4 29.5 66 -6.8 19.7
00:35 1017 30.03 846 24.98 -1.3 29.6 66 -6.8 19.7
00:40 1017 30.03 846 24.98 -1.6 29 68 -6.8 19.8
00:45 1017 30.03 846 24.98 -2.1 28.2 69 -7.1 19.3
00:50 1017 30.03 846 24.98 -2 28.5 67 -7.3 18.8
00:55 1017 30.03 846 24.98 -2 28.5 69 -6.9 19.5
01:00 1017 30.03 846 24.98 -2.2 28 69 -7.2 19
01:05 1017 30.03 846 24.98 -2.8 27 71 -7.4 18.7
01:10 1017 30.03 846 24.98 -2.9 26.8 71 -7.5 18.5
01:15 1017 30.03 846 24.98 -2.8 27 72 -7.2 19.1
01:20 1017 30.03 846 24.98 -2.8 27 71 -7.3 18.8
01:25 1017 30.03 846 24.98 -2.3 27.8 68 -7.5 18.5
01:30 1017 30.03 846 24.98 -2 28.3 68 -7.2 19
01:35 1017 30.03 846 24.98 -2.2 28.1 68 -7.3 18.8
01:40 1017 30.03 846 24.98 -2.1 28.3 67 -7.4 18.7
01:45 1017 30.03 846 24.98 -1.8 28.8 65 -7.4 18.6
01:50 1017 30.03 846 24.98 -1.5 29.2 64 -7.4 18.6
01:55 1016 30 846 24.98 -1.3 29.7 63 -7.4 18.7
02:00 1016 30 846 24.98 -1.2 29.8 63 -7.3 18.8
02:05 1016 30 845 24.95 -1.4 29.6 64 -7.3 18.8
02:10 1016 30 845 24.95 -1.7 28.9 66 -7.2 19
02:15 1016 30 845 24.95 -2.9 26.9 72 -7.2 19
02:20 1016 30 845 24.95 -3.2 26.2 72 -7.6 18.4
02:25 1016 30 845 24.95 -3 26.5 70 -7.7 18.2
02:30 1016 30 845 24.95 -2.4 27.7 67 -7.6 18.3
02:35 1016 30 845 24.95 -1.9 28.6 65 -7.6 18.4
02:40 1016 30 845 24.95 -1.6 29.1 64 -7.4 18.6
02:45 1016 30 845 24.95 -1.6 29 64 -7.6 18.2
02:50 1016 30 845 24.95 -1.5 29.4 65 -7.3 18.9
02:55 1016 30 845 24.95 -1.9 28.6 66 -7.5 18.5
03:00 1016 30 845 24.95 -1.7 28.9 65 -7.6 18.4
03:05 1016 30 845 24.95 -1.4 29.4 62 -7.8 18
03:10 1016 30 845 24.95 -1.3 29.7 64 -7.3 18.9
03:15 1016 30 845 24.95 -1.3 29.7 61 -7.9 17.7
03:20 1016 30 845 24.95 -0.7 30.8 60 -7.4 18.6
03:25 1016 30 845 24.95 -0.8 30.6 61 -7.5 18.5
03:30 1016 30 845 24.95 -1 30.3 61 -7.5 18.5
03:35 1016 30 845 24.95 -1.1 30.1 61 -7.6 18.4
03:40 1016 30 845 24.95 -0.9 30.4 61 -7.5 18.4
03:45 1016 30 845 24.95 -0.9 30.4 61 -7.6 18.4
03:50 1016 30 845 24.95 -0.9 30.4 61 -7.4 18.6
03:55 1016 30 845 24.95 -0.9 30.3 61 -7.5 18.5
04:00 1016 30 845 24.95 -1.2 29.9 62 -7.5 18.6
04:05 1015 29.97 845 24.95 -1.5 29.2 64 -7.5 18.5
04:10 1015 29.97 845 24.95 -1.8 28.7 65 -7.5 18.5
04:15 1015 29.97 845 24.95 -2 28.5 65 -7.7 18.1
04:20 1015 29.97 845 24.95 -1.7 28.9 63 -7.8 18
04:25 1015 29.97 845 24.95 -1.4 29.4 63 -7.7 18.2
04:30 1015 29.97 845 24.95 -1.3 29.8 63 -7.5 18.5
04:35 1015 29.97 845 24.95 -1 30.2 60 -7.9 17.8
04:40 1015 29.97 845 24.95 -0.6 30.9 59 -7.6 18.4
04:45 1015 29.97 844 24.92 -0.8 30.5 60 -7.6 18.3
04:50 1015 29.97 844 24.92 -1.1 30 62 -7.6 18.4
04:55 1015 29.97 844 24.92 -1.4 29.5 63 -7.6 18.4
05:00 1015 29.97 844 24.92 -1.5 29.3 63 -7.8 18
05:05 1015 29.97 844 24.92 -1.5 29.2 63 -7.7 18.2
05:10 1015 29.97 844 24.92 -1.7 29 64 -7.7 18.2
05:15 1015 29.97 844 24.92 -1.7 28.9 64 -7.7 18.1
05:20 1015 29.97 845 24.95 -1.8 28.8 64 -7.7 18.2
05:25 1015 29.97 845 24.95 -2 28.4 65 -7.7 18.1
05:30 1015 29.97 845 24.95 -2 28.4 64 -7.9 17.8
05:35 1015 29.97 845 24.95 -1.9 28.6 64 -7.8 18
05:40 1015 29.97 845 24.95 -1.9 28.7 63 -7.9 17.7
05:45 1015 29.97 845 24.95 -1.8 28.7 64 -7.8 17.9
05:50 1015 29.97 845 24.95 -1.9 28.6 64 -7.9 17.7
05:55 1015 29.97 845 24.95 -2 28.4 64 -7.9 17.7
06:00 1015 29.97 844 24.92 -1.9 28.7 62 -8.1 17.4
06:05 1015 29.97 844 24.92 -1.8 28.8 63 -7.9 17.7
06:10 1015 29.97 844 24.92 -1.7 28.9 62 -8.1 17.4
06:15 1015 29.97 844 24.92 -1.4 29.5 61 -8 17.7
06:20 1015 29.97 844 24.92 -2.1 28.2 66 -7.6 18.2
06:25 1015 29.97 844 24.92 -2.3 27.8 66 -7.9 17.8
06:30 1015 29.97 844 24.92 -2.6 27.3 66 -8 17.5
06:35 1015 29.97 844 24.92 -2.5 27.4 65 -8.2 17.2
06:40 1015 29.97 844 24.92 -2.2 28.1 63 -8.2 17.2
06:45 1015 29.97 844 24.92 -1.9 28.5 62 -8.3 17.1
06:50 1015 29.97 844 24.92 -1.7 28.9 62 -8.1 17.3
06:55 1015 29.97 844 24.92 -1.7 28.9 64 -7.7 18.1
07:00 1015 29.97 844 24.92 -2.5 27.5 64 -8.4 16.8
07:05 1015 29.97 844 24.92 -1.9 28.6 63 -8 17.6
07:10 1015 29.97 844 24.92 -1.6 29.2 59 -8.5 16.6
07:15 1015 29.97 844 24.92 -1.6 29.1 61 -8.1 17.4
07:20 1014 29.94 844 24.92 -1.6 29.2 61 -8.2 17.3
07:25 1014 29.94 844 24.92 -1.6 29.2 59 -8.5 16.7
07:30 1014 29.94 844 24.92 -1.3 29.7 61 -7.9 17.7
07:35 1014 29.94 844 24.92 -1.5 29.3 59 -8.5 16.8
07:40 1014 29.94 843 24.89 -1.3 29.6 60 -8.1 17.5
07:45 1014 29.94 844 24.92 -1.8 28.7 62 -8.2 17.3
07:50 1014 29.94 844 24.92 -2.3 27.9 63 -8.4 16.8
07:55 1015 29.97 844 24.92 -2 28.3 60 -8.7 16.3
08:00 1015 29.97 844 24.92 -1.6 29 59 -8.6 16.5
08:05 1015 29.97 844 24.92 -1.4 29.5 58 -8.6 16.5
08:10 1015 29.97 844 24.92 -1.3 29.7 59 -8.3 17.1
08:15 1015 29.97 844 24.92 -1.7 28.9 61 -8.3 17.1
08:20 1015 29.97 844 24.92 -2.1 28.2 62 -8.4 17
08:25 1015 29.97 844 24.92 -2.5 27.5 64 -8.5 16.8
08:30 1015 29.97 844 24.92 -2.5 27.5 64 -8.5 16.7
08:35 1015 29.97 844 24.92 -2.5 27.5 64 -8.5 16.7
08:40 1015 29.97 844 24.92 -2.5 27.5 64 -8.5 16.8
08:45 1015 29.97 844 24.92 -2.4 27.6 64 -8.3 17
08:50 1015 29.97 844 24.92 -2.5 27.5 65 -8.2 17.3
08:55 1015 29.97 844 24.92 -2.6 27.4 64 -8.4 16.9
09:00 1015 29.97 844 24.92 -2.5 27.4 64 -8.3 17
09:05 1015 29.97 844 24.92 -2.6 27.4 65 -8.3 17
09:10 1015 29.97 844 24.92 -2.7 27.2 65 -8.4 16.9
09:15 1015 29.97 844 24.92 -2.6 27.3 65 -8.3 17
09:20 1015 29.97 844 24.92 -2.7 27.1 64 -8.5 16.7
09:25 1015 29.97 844 24.92 -2.7 27.1 64 -8.5 16.6
09:30 1014 29.94 844 24.92 -2.7 27.2 64 -8.5 16.6
09:35 1015 29.97 844 24.92 -2.7 27.2 64 -8.6 16.6
09:40 1015 29.97 844 24.92 -2.8 27 65 -8.5 16.7
09:45 1015 29.97 844 24.92 -2.6 27.2 63 -8.7 16.3
09:50 1015 29.97 844 24.92 -2.3 27.8 61 -8.8 16.1
09:55 1014 29.94 844 24.92 -2.2 28 62 -8.6 16.5
10:00 1014 29.94 844 24.92 -2.1 28.2 62 -8.4 16.9
10:05 1014 29.94 844 24.92 -2.1 28.2 62 -8.4 16.9
10:10 1014 29.94 843 24.89 -2 28.4 61 -8.6 16.6
10:15 1014 29.94 843 24.89 -1.8 28.7 62 -8.2 17.3
10:20 1014 29.94 843 24.89 -1.9 28.6 64 -7.7 18.1
10:25 1014 29.94 843 24.89 -2.5 27.4 67 -7.9 17.8
10:30 1014 29.94 843 24.89 -2.9 26.9 68 -8 17.5
10:35 1014 29.94 843 24.89 -3 26.7 68 -8.1 17.5
10:40 1014 29.94 843 24.89 -2.9 26.9 67 -8.1 17.4
10:45 1014 29.94 843 24.89 -2.7 27.2 66 -8.3 17.1
10:50 1014 29.94 843 24.89 -2.5 27.5 65 -8.3 17.1
10:55 1014 29.94 843 24.89 -2.2 28 63 -8.3 17
11:00 1014 29.94 843 24.89 -1.9 28.5 62 -8.2 17.2
11:05 1014 29.94 843 24.89 -1.6 29.1 60 -8.5 16.7
11:10 1014 29.94 843 24.89 -1.4 29.5 60 -8.3 17.1
11:15 1014 29.94 843 24.89 -1.3 29.7 59 -8.3 17.1
11:20 1014 29.94 843 24.89 -1.2 29.9 62 -7.7 18.2
11:25 1014 29.94 843 24.89 -1.3 29.6 61 -7.9 17.8
11:30 1014 29.94 843 24.89 -1.2 29.9 62 -7.6 18.3
11:35 1014 29.94 843 24.89 -1.2 29.8 63 -7.5 18.6
11:40 1014 29.94 843 24.89 -1.2 29.8 62 -7.6 18.2
11:45 1014 29.94 843 24.89 -1.4 29.5 63 -7.5 18.4
11:50 1014 29.94 843 24.89 -1.3 29.7 63 -7.4 18.7
11:55 1014 29.94 843 24.89 -1.2 29.9 62 -7.6 18.3
12:00 1014 29.94 843 24.89 -1.1 30 60 -7.9 17.8
12:05 1014 29.94 843 24.89 -0.8 30.5 60 -7.6 18.3
12:10 1014 29.94 843 24.89 -0.6 31 59 -7.6 18.3
12:15 1014 29.94 843 24.89 -0.4 31.3 59 -7.5 18.6
12:20 1013 29.91 843 24.89 -0.2 31.7 56 -8 17.7
12:25 1013 29.91 843 24.89 -0.1 31.9 55 -8.1 17.5
12:30 1013 29.91 843 24.89 0.2 32.3 55 -7.9 17.8
12:35 1013 29.91 842 24.86 0.6 33.1 53 -7.9 17.8
12:40 1013 29.91 842 24.86 0.7 33.3 56 -7.1 19.3
12:45 1013 29.91 842 24.86 0.8 33.5 56 -7 19.4
12:50 1013 29.91 842 24.86 0.9 33.7 55 -7 19.4
12:55 1013 29.91 842 24.86 1 33.9 56 -6.7 20
13:00 1013 29.91 842 24.86 1 33.7 57 -6.6 20
13:05 1013 29.91 842 24.86 1 33.8 57 -6.7 19.9
13:10 1013 29.91 842 24.86 0.8 33.4 59 -6.3 20.6
13:15 1013 29.91 842 24.86 0.7 33.3 60 -6.3 20.7
13:20 1013 29.91 842 24.86 0.7 33.3 58 -6.5 20.3
13:25 1012 29.88 842 24.86 1.1 33.9 56 -6.8 19.7
13:30 1012 29.88 841 24.83 1 33.7 56 -7 19.5
13:35 1012 29.88 841 24.83 0.9 33.6 56 -6.9 19.6
13:40 1012 29.88 841 24.83 0.9 33.6 59 -6.3 20.6
13:45 1012 29.88 841 24.83 0.8 33.5 58 -6.6 20.1
13:50 1012 29.88 841 24.83 0.5 32.9 57 -6.9 19.5
13:55 1012 29.88 841 24.83 -0 31.9 57 -7.6 18.3
14:00 1012 29.88 841 24.83 0.1 32.2 56 -7.7 18.2
14:05 1012 29.88 841 24.83 0.4 32.8 54 -7.8 18
14:10 1012 29.88 841 24.83 0.7 33.3 53 -7.9 17.8
14:15 1012 29.88 841 24.83 0.8 33.5 53 -7.7 18.1
14:20 1012 29.88 841 24.83 0.7 33.2 55 -7.4 18.7
14:25 1012 29.88 841 24.83 0.8 33.4 53 -7.9 17.9
14:30 1012 29.88 841 24.83 0.9 33.6 57 -6.8 19.8
14:35 1011 29.85 841 24.83 0.1 32.2 59 -6.9 19.6
14:40 1011 29.85 841 24.83 -0.7 30.7 62 -7.2 19
14:45 1011 29.85 840 24.81 -1 30.3 61 -7.7 18.2
14:50 1011 29.85 840 24.81 -0.9 30.4 62 -7.2 19
14:55 1011 29.85 840 24.81 -0.9 30.3 64 -6.9 19.5
15:00 1011 29.85 840 24.81 -1.1 30.1 61 -7.6 18.2
15:05 1011 29.85 840 24.81 -0.7 30.7 60 -7.5 18.5
15:10 1011 29.85 840 24.81 -0.4 31.3 60 -7.3 18.9
15:15 1011 29.85 840 24.81 -0.3 31.5 57 -7.8 17.9
15:20 1011 29.85 840 24.81 -0.2 31.6 60 -7.1 19.1
15:25 1011 29.85 840 24.81 -0.2 31.7 61 -6.9 19.6
15:30 1011 29.85 840 24.81 -0.4 31.3 60 -7.2 19
15:35 1011 29.85 840 24.81 -0.4 31.4 62 -6.8 19.8
15:40 1011 29.85 840 24.81 -0.2 31.6 59 -7.2 19.1
15:45 1011 29.85 840 24.81 -0.1 31.8 61 -6.7 19.9
15:50 1011 29.85 840 24.81 -0.2 31.7 59 -7.2 19.1
15:55 1011 29.85 840 24.81 -0.3 31.5 60 -7 19.4
16:00 1011 29.85 840 24.81 -0.4 31.3 60 -7.2 19
16:05 1011 29.85 840 24.81 -0.4 31.3 59 -7.5 18.5
16:10 1011 29.85 840 24.81 -0.3 31.4 60 -7.2 19.1
16:15 1011 29.85 840 24.81 -0.2 31.6 60 -6.9 19.5
16:20 1011 29.85 840 24.81 -0.1 31.9 60 -6.9 19.5
16:25 1011 29.85 840 24.81 -0.1 31.8 59 -7.2 19
16:30 1011 29.85 840 24.81 -0.1 31.8 60 -7 19.4
16:35 1011 29.85 840 24.81 -0 32 59 -7 19.4
16:40 1011 29.85 840 24.81 -0 32 59 -7.1 19.3
16:45 1011 29.85 840 24.81 0.1 32.2 60 -6.7 19.9
16:50 1011 29.85 840 24.81 0.2 32.4 60 -6.7 19.9
16:55 1011 29.85 840 24.81 0.3 32.5 60 -6.7 19.9
17:00 1011 29.85 840 24.81 0.3 32.5 59 -6.8 19.7
17:05 1011 29.85 840 24.81 0.3 32.5 60 -6.6 20.2
17:10 1011 29.85 840 24.81 0.3 32.6 60 -6.4 20.4
17:15 1011 29.85 840 24.81 0.4 32.7 61 -6.3 20.6
17:20 1011 29.85 840 24.81 0.5 32.8 62 -6 21.1
17:25 1011 29.85 840 24.81 0.5 33 62 -5.9 21.4
17:30 1011 29.85 840 24.81 0.5 32.9 62 -5.9 21.5
17:35 1011 29.85 840 24.81 0.5 32.8 64 -5.7 21.8
17:40 1011 29.85 840 24.81 0.3 32.6 61 -6.4 20.4
17:45 1010 29.83 840 24.81 0 32 61 -6.7 19.9
17:50 1010 29.83 840 24.81 -0.2 31.6 63 -6.5 20.2
17:55 1010 29.83 840 24.81 -0.3 31.4 63 -6.5 20.3
18:00 1010 29.83 840 24.81 -0.3 31.4 63 -6.5 20.3
18:05 1010 29.83 840 24.81 -0.2 31.6 62 -6.6 20.1
18:10 1010 29.83 840 24.81 -0.3 31.5 63 -6.5 20.3
18:15 1010 29.83 840 24.81 -0.2 31.6 64 -6.2 20.9
18:20 1011 29.85 840 24.81 -0.1 31.8 64 -6.2 20.9
18:25 1011 29.85 840 24.81 -0.2 31.7 64 -6.2 20.9
18:30 1010 29.83 840 24.81 -0.3 31.4 65 -6.2 20.9
18:35 1010 29.83 840 24.81 -0.4 31.2 65 -6.3 20.7
18:40 1010 29.83 840 24.81 -0.5 31.1 65 -6.3 20.6
18:45 1010 29.83 840 24.81 -0.4 31.3 65 -6.2 20.9
18:50 1010 29.83 840 24.81 -0.3 31.4 65 -6.2 20.9
18:55 1010 29.83 840 24.81 -0.3 31.5 66 -5.9 21.4
19:00 1010 29.83 840 24.81 -0.4 31.3 66 -5.9 21.4
19:05 1010 29.83 839 24.78 -0.2 31.6 66 -5.8 21.5
19:10 1010 29.83 839 24.78 -0.3 31.5 66 -5.8 21.6
19:15 1010 29.83 839 24.78 -0.3 31.4 67 -5.7 21.7
19:20 1010 29.83 839 24.78 -0.4 31.3 67 -5.7 21.7
19:25 1010 29.83 840 24.81 -0.1 31.9 62 -6.5 20.4
19:30 1010 29.83 839 24.78 1.1 33.9 59 -6 21.2
19:35 1010 29.83 839 24.78 1.4 34.5 58 -5.9 21.4
19:40 1010 29.83 840 24.81 1.5 34.7 57 -6 21.2
19:45 1010 29.83 840 24.81 1.7 35 58 -5.8 21.6
19:50 1010 29.83 840 24.81 1.5 34.8 59 -5.6 21.9
19:55 1010 29.83 840 24.81 1.4 34.6 59 -5.8 21.6
20:00 1010 29.83 840 24.81 1.2 34.2 59 -5.8 21.5
20:05 1010 29.83 839 24.78 1.6 34.9 58 -5.7 21.7
20:10 1010 29.83 839 24.78 1.8 35.2 57 -5.7 21.7
20:15 1010 29.83 839 24.78 1.8 35.2 59 -5.5 22.2
20:20 1010 29.83 839 24.78 2 35.6 56 -5.8 21.6
20:25 1010 29.83 839 24.78 2.5 36.4 55 -5.6 22
20:30 1010 29.83 840 24.81 2.5 36.5 55 -5.6 21.9
20:35 1011 29.85 840 24.81 2.4 36.3 57 -5.3 22.5
20:40 1011 29.85 840 24.81 2.3 36.1 57 -5.4 22.4
20:45 1010 29.83 840 24.81 2.1 35.7 59 -5.2 22.7
20:50 1010 29.83 840 24.81 1.8 35.3 60 -5.1 22.7
20:55 1010 29.83 840 24.81 1.8 35.2 60 -5.2 22.6
21:00 1010 29.83 840 24.81 1.8 35.2 60 -5.2 22.7
21:05 1011 29.85 840 24.81 1.9 35.5 58 -5.4 22.3
21:10 1011 29.85 840 24.81 2.3 36.1 57 -5.4 22.3
21:15 1011 29.85 840 24.81 2.5 36.5 55 -5.7 21.8
21:20 1010 29.83 840 24.81 2.9 37.2 53 -5.7 21.8
21:25 1010 29.83 839 24.78 3.2 37.7 53 -5.5 22.1
21:30 1010 29.83 839 24.78 3.3 37.9 52 -5.7 21.8
21:35 1010 29.83 839 24.78 3.4 38 51 -5.8 21.5
21:40 1010 29.83 839 24.78 3.5 38.3 51 -5.6 21.9
21:45 1010 29.83 839 24.78 3.5 38.3 52 -5.6 22
21:50 1010 29.83 839 24.78 3.7 38.6 49 -6 21.2
21:55 1010 29.83 839 24.78 3.7 38.6 50 -5.7 21.8
22:00 1010 29.83 839 24.78 3.6 38.4 50 -5.8 21.6
22:05 1010 29.83 839 24.78 3.3 38 52 -5.6 21.9
22:10 1010 29.83 839 24.78 3.3 38 50 -6.1 21
22:15 1010 29.83 839 24.78 3.4 38.1 52 -5.7 21.8
22:20 1010 29.83 839 24.78 3 37.3 53 -5.8 21.6
22:25 1010 29.83 839 24.78 2.7 36.8 54 -5.8 21.6
22:30 1010 29.83 839 24.78 2.5 36.4 55 -5.7 21.7
22:35 1010 29.83 839 24.78 2.5 36.5 54 -5.9 21.3
22:40 1010 29.83 839 24.78 2.7 36.9 52 -6.1 21
22:45 1010 29.83 839 24.78 2.8 37 53 -5.8 21.6
22:50 1010 29.83 839 24.78 2.5 36.5 54 -5.8 21.5
22:55 1010 29.83 839 24.78 2.5 36.5 54 -5.8 21.6
23:00 1010 29.83 839 24.78 2.1 35.8 54 -6.1 20.9
23:05 1010 29.83 839 24.78 2.2 36 55 -6 21.2
23:10 1010 29.83 839 24.78 2.2 36 55 -6 21.2
23:15 1010 29.83 839 24.78 2.4 36.3 54 -5.9 21.3
23:20 1010 29.83 839 24.78 2.7 36.8 54 -5.8 21.5
23:25 1010 29.83 839 24.78 2.5 36.6 53 -6.1 21
23:30 1010 29.83 839 24.78 2.8 37 54 -5.7 21.8
23:35 1010 29.83 840 24.81 2.6 36.8 55 -5.6 22
23:40 1010 29.83 840 24.81 2.6 36.7 54 -5.7 21.7
23:45 1010 29.83 839 24.78 2.6 36.8 53 -5.9 21.4
23:50 1010 29.83 840 24.81 2.4 36.4 56 -5.5 22.1
23:55 1010 29.83 840 24.81 2.5 36.5 54 -5.9 21.3
24:00 1011 29.85 840 24.81 2.7 36.9 53 -6 21.1